Tuesday, July 25, 2017, 2:37 AM EDT

KMUI, Muir Army Air Field / Indiantown

Location: Jonestown, PA, United States Lat: 40.433
Local Time: 2:37 AM EDT ( 6:37 GMT) Lon: -76.567
Time Zone: US/Eastern Elev: 488 ft

Show me the last for .
Show Decoded

2017-07-25 01:58 METAR KMUI 250558Z AUTO 00000KT 10SM CLR 18/16 A2996 RMK AO2 SLP145 T01840159
                 10235 20175 51019 =
2017-07-25 00:58 METAR KMUI 250458Z AUTO 00000KT 10SM CLR 18/17 A2996 RMK AO2 SLP145 T01830169
                 402960183 =
2017-07-24 23:58 METAR KMUI 250358Z AUTO 30003KT 10SM FEW085 22/16 A2993 RMK AO2 SLP135 T02170163
                 =
2017-07-24 22:58 METAR KMUI 250258Z AUTO 31003KT 10SM SCT090 21/19 A2991 RMK AO2 SLP128 T02140187
                 53021 =
2017-07-24 21:58 METAR KMUI 250158Z AUTO 16003KT 10SM BKN075 21/21 A2989 RMK AO2 SLP121 T02130213
                 =
2017-07-24 20:58 METAR KMUI 250058Z AUTO 00000KT 10SM FEW080 21/21 A2984 RMK AO2 SLP105 T02140214
                 =
2017-07-24 19:58 METAR KMUI 242358Z 00000KT 10SM SCT075 23/22 A2984 RMK AO2A SLP105 60024
                 T02300220 10296 20221 50021 =
2017-07-24 18:58 METAR KMUI 242258Z 00000KT 10SM FEW090 SCT110 24/22 A2981 RMK AO2A PK WND
                 24028/2158 LTG DSNT E RAB00E15 TSE13 SLP095 P0024 T02390217 =
2017-07-24 18:15 METAR KMUI 242215Z 34004KT 8SM VCTS BKN032 BKN040 BKN055 OVC080 22/21 A2982 RMK
                 AO2A RAB00E15 TSE13 SLP098 =
2017-07-24 18:13 METAR KMUI 242213Z 28005KT 6SM -SHRA VCTS BKN029 BKN040 BKN080 22/21 A2982 RMK
                 AO2A RAB00 TSE13 CIG 029V055 SLP098 RVRNO =
2017-07-24 18:08 METAR KMUI 242208Z 28005G28KT 3SM +TSRA SCT031 SCT040 BKN055 BKN070 24/21 A2983
                 RMK AO2A RAB00 PRESFR SLP101 RVRNO =
2017-07-24 18:05 METAR KMUI 242205Z 27009G28KT 2SM -TSRA SCT030 SCT040 BKN055 BKN070 OVC090 25/21
                 A2985 RMK AO2A RAB00 SLP108 RVRNO =
2017-07-24 18:03 METAR KMUI 242203Z 25017G28KT 1 1/4SM -TSRA FEW031 SCT040 BKN055 BKN070 BKN090
                 26/21 A2985 RMK AO2A RAB00 SLP108 =
2017-07-24 18:00 METAR KMUI 242200Z 24023G28KT 1SM -TSRA FEW034 SCT055 BKN070 BKN090 27/20 A2984
                 RMK AO2A RAB00 SLP104 =
2017-07-24 17:58 METAR KMUI 242158Z 25021G26KT 10SM TS SCT055 BKN070 BKN090 28/20 A2984 RMK AO2A
                 TSB49 PRESRR SLP104 T02810202 =
2017-07-24 17:49 METAR KMUI 242149Z 27006KT 10SM TS FEW060 SCT070 BKN090 28/20 A2979 RMK AO2A
                 TSB49 SLP087 =
2017-07-24 16:58 METAR KMUI 242058Z 21005KT 10SM SCT043 BKN120 28/20 A2978 RMK AO2A SLP083
                 T02840203 57012 =
2017-07-24 15:58 METAR KMUI 241958Z 21008G18KT 10SM SCT043 SCT055 29/20 A2979 RMK AO2A SLP087
                 T02930198 =
2017-07-24 14:58 METAR KMUI 241858Z 20004KT 10SM SCT035 28/20 A2980 RMK AO2A SLP090 T02810202 =
2017-07-24 13:58 METAR KMUI 241758Z 23003KT 10SM FEW032 SCT043 BKN060 27/20 A2981 RMK AO2A SLP094
                 T02710202 10273 20215 50003 =
2017-07-24 12:58 METAR KMUI 241658Z 32005KT 10SM BKN032 BKN130 27/20 A2982 RMK AO2A SLP097
                 T02660197 =
2017-07-24 11:58 METAR KMUI 241558Z 28005KT 10SM BKN030 BKN200 26/20 A2982 RMK AO2A SLP097
                 T02620198 =
2017-07-24 11:51 METAR KMUI 241551Z 32003KT 10SM BKN030 BKN200 26/20 A2982 RMK AO2A SLP097 =
2017-07-24 11:14 METAR KMUI 241514Z 28005KT 10SM BKN028 BKN060 BKN200 26/20 A2981 RMK AO2A SLP094
                 =
2017-07-24 10:58 METAR KMUI 241458Z 27006KT 10SM SCT025 SCT060 BKN200 26/20 A2981 RMK AO2A SLP094
                 T02590200 50006 =
2017-07-24 09:58 METAR KMUI 241358Z 00000KT 10SM FEW015 SCT080 BKN200 24/20 A2980 RMK AO2A SLP091
                 T02420202 =
2017-07-24 09:14 METAR KMUI 241314Z 30003KT 10SM SCT015 SCT080 BKN200 23/20 A2980 RMK AO2A SLP091
                 =
2017-07-24 08:58 METAR KMUI 241258Z 00000KT 10SM BKN015 BKN200 22/20 A2981 RMK AO2A SLP095
                 T02220202 =
2017-07-24 08:41 METAR KMUI 241241Z 21003KT 10SM BKN016 BKN200 22/20 A2981 RMK AO2A SLP095 =
2017-07-24 07:58 METAR KMUI 241158Z 32007KT 10SM SCT008 SCT080 BKN130 21/20 A2979 RMK AO2A RAE19
                 SLP088 P0001 60058 70175 T02130203 10213 20199 53021 =
2017-07-24 07:19 METAR KMUI 241119Z 36005KT 10SM FEW008 FEW012 BKN035 BKN130 20/20 A2976 RMK AO2A
                 RAE19 SLP078 =
2017-07-24 06:58 METAR KMUI 241058Z 03006KT 7SM -RA FEW007 SCT012 BKN035 20/20 A2975 RMK AO2A
                 SLP074 P0015 T01990198 =
2017-07-24 06:51 METAR KMUI 241051Z 02005KT 4SM -RA BR FEW007 SCT012 OVC032 20/20 A2975 RMK AO2A
                 SLP074 =
2017-07-24 06:48 METAR KMUI 241048Z AUTO 03007KT 2SM -RA BR FEW012 OVC034 20/20 A2976 RMK AO2 VIS
                 1 3/4V2 1/2 SLP077 =
2017-07-24 06:46 METAR KMUI 241046Z AUTO 02005G20KT 1 3/4SM +RA BR FEW013 OVC034 20/20 A2976 RMK
                 AO2 VIS 1 3/4V4 SLP077 =
2017-07-24 06:40 METAR KMUI 241040Z AUTO 35009G20KT 2 1/2SM +RA BR FEW013 SCT021 SCT028 OVC035
                 20/20 A2976 RMK AO2 VIS 2 1/2V4 SLP077 =
2017-07-24 06:38 METAR KMUI 241038Z AUTO 35012G20KT 3SM RA BR FEW013 SCT021 SCT028 OVC036 20/20
                 A2976 RMK AO2 SLP077 =
2017-07-24 06:36 METAR KMUI 241036Z AUTO 34013G19KT 4SM RA BR SCT011 SCT021 BKN028 OVC037 20/20
                 A2976 RMK AO2 CIG 011V038 BKN V SCT SLP077 =
2017-07-24 06:34 METAR KMUI 241034Z AUTO 34008G17KT 4SM -RA BR SCT011 SCT028 OVC038 20/20 A2976
                 RMK AO2 SLP077 =
2017-07-24 06:32 METAR KMUI 241032Z AUTO 36010G17KT 3SM RA BR SCT011 BKN029 OVC036 21/21 A2976
                 RMK AO2 CIG 011V029 SLP077 =
2017-07-24 06:24 METAR KMUI 241024Z AUTO 24003KT 4SM RA BR SCT008 BKN014 BKN022 BKN029 OVC037
                 21/21 A2975 RMK AO2 CIG 008V018 SLP074 =
2017-07-24 06:20 METAR KMUI 241020Z AUTO 35004KT 9SM RA SCT008 BKN012 BKN017 BKN021 OVC029 21/21
                 A2975 RMK AO2 CIG 008V012 SLP074 =
2017-07-24 06:18 METAR KMUI 241018Z AUTO 33009KT 8SM RA BKN009 BKN015 BKN021 OVC029 21/21 A2975
                 RMK AO2 PRESRR SLP074 =
2017-07-24 06:06 METAR KMUI 241006Z AUTO 35006KT 6SM RA BR OVC008 21/21 A2973 RMK AO2 CIG 006V008
                 SLP067 =
2017-07-24 05:58 METAR KMUI 240958Z AUTO 01003KT 5SM -RA BR OVC006 21/21 A2973 RMK AO2
                 DZB19E28RAB28E37DZB37E50RAB52 SLP067 P0003 T02060206 =
2017-07-24 05:52 METAR KMUI 240952Z AUTO 36003KT 7SM RA OVC006 21/21 A2973 RMK AO2
                 DZB19E28RAB28E37DZB37E50RAB52 SLP067 =
2017-07-24 05:50 METAR KMUI 240950Z AUTO 01003KT 9SM OVC006 21/21 A2973 RMK AO2
                 DZB19E28RAB28E37DZB37E50 SLP067 =
2017-07-24 05:45 METAR KMUI 240945Z AUTO 00000KT 10SM -DZ OVC006 21/21 A2973 RMK AO2
                 DZB19E28RAB28E37DZB37 SLP067 =
2017-07-24 05:19 METAR KMUI 240919Z AUTO 01003KT 9SM -DZ OVC005 21/21 A2972 RMK AO2 DZB19 SLP063
                 =
2017-07-24 04:58 METAR KMUI 240858Z AUTO 04003KT 10SM OVC005 21/21 A2973 RMK AO2 SLP067 60039
                 T02060206 57016 =
2017-07-24 04:48 METAR KMUI 240848Z AUTO 03003KT 10SM OVC005 21/21 A2973 RMK AO2 SLP067 =
2017-07-24 04:06 METAR KMUI 240806Z AUTO 06003KT 10SM OVC006 21/21 A2973 RMK AO2 SLP067 =
2017-07-24 03:58 METAR KMUI 240758Z AUTO 00000KT 10SM OVC007 21/21 A2973 RMK AO2
                 DZE19RAB19E28DZB28E38 SLP067 P0000 T02080208 =
2017-07-24 03:38 METAR KMUI 240738Z AUTO 04004KT 10SM OVC007 21/21 A2973 RMK AO2
                 DZE19RAB19E28DZB28E38 SLP067 =
2017-07-24 03:32 METAR KMUI 240732Z AUTO 00000KT 10SM -DZ OVC007 21/21 A2974 RMK AO2
                 DZE19RAB19E28DZB28 SLP070 =
2017-07-24 03:26 METAR KMUI 240726Z AUTO 02003KT 10SM -RA OVC006 21/21 A2974 RMK AO2 DZE19RAB19
                 SLP070 =
2017-07-24 03:14 METAR KMUI 240714Z AUTO 00000KT 9SM -DZ OVC007 21/21 A2975 RMK AO2 SLP074 =
2017-07-24 03:06 METAR KMUI 240706Z AUTO 04003KT 8SM -DZ BKN006 OVC010 21/21 A2975 RMK AO2 SLP073
                 =
2017-07-24 02:58 METAR KMUI 240658Z AUTO 02003KT 7SM -DZ BKN005 OVC010 21/21 A2975 RMK AO2
                 RAE57DZB57 SLP073 P0039 T02100210 =
2017-07-24 02:44 METAR KMUI 240644Z AUTO 04003KT 4SM RA BR BKN005 BKN010 OVC015 21/21 A2975 RMK
                 AO2 CIG 004V006 SLP074 =
2017-07-24 02:40 METAR KMUI 240640Z AUTO 00000KT 4SM RA BR BKN004 OVC013 21/21 A2976 RMK AO2
                 SLP077 =

Support USWX by starting your Amazon purchase here.